sensor_id;sensor_type;location;lat;lon;timestamp;temperature;humidity
45233;DHT22;30969;51.052;17.056;2022-09-12T00:04:26;15.70;88.00
45233;DHT22;30969;51.052;17.056;2022-09-12T00:09:29;15.70;88.50
45233;DHT22;30969;51.052;17.056;2022-09-12T00:14:34;15.60;88.40
45233;DHT22;30969;51.052;17.056;2022-09-12T00:19:38;15.60;88.60
45233;DHT22;30969;51.052;17.056;2022-09-12T00:24:41;15.70;88.30
45233;DHT22;30969;51.052;17.056;2022-09-12T00:29:46;15.70;88.00
45233;DHT22;30969;51.052;17.056;2022-09-12T00:34:49;15.80;87.70
45233;DHT22;30969;51.052;17.056;2022-09-12T00:39:53;15.90;87.10
45233;DHT22;30969;51.052;17.056;2022-09-12T00:44:58;15.80;86.60
45233;DHT22;30969;51.052;17.056;2022-09-12T00:50:05;15.80;87.20
45233;DHT22;30969;51.052;17.056;2022-09-12T00:55:13;15.80;86.70
45233;DHT22;30969;51.052;17.056;2022-09-12T01:00:20;15.80;86.40
45233;DHT22;30969;51.052;17.056;2022-09-12T01:05:25;15.70;86.70
45233;DHT22;30969;51.052;17.056;2022-09-12T01:10:29;15.70;86.10
45233;DHT22;30969;51.052;17.056;2022-09-12T01:15:36;15.70;85.20
45233;DHT22;30969;51.052;17.056;2022-09-12T01:20:48;15.70;84.50
45233;DHT22;30969;51.052;17.056;2022-09-12T01:26:05;15.60;84.20
45233;DHT22;30969;51.052;17.056;2022-09-12T01:31:16;15.50;84.70
45233;DHT22;30969;51.052;17.056;2022-09-12T01:36:37;15.50;84.60
45233;DHT22;30969;51.052;17.056;2022-09-12T01:41:51;15.50;84.70
45233;DHT22;30969;51.052;17.056;2022-09-12T01:47:02;15.40;84.70
45233;DHT22;30969;51.052;17.056;2022-09-12T01:52:14;15.40;84.60
45233;DHT22;30969;51.052;17.056;2022-09-12T01:57:26;15.50;84.60
45233;DHT22;30969;51.052;17.056;2022-09-12T02:02:35;15.50;84.40
45233;DHT22;30969;51.052;17.056;2022-09-12T02:07:43;15.40;84.40
45233;DHT22;30969;51.052;17.056;2022-09-12T02:12:50;15.40;84.50
45233;DHT22;30969;51.052;17.056;2022-09-12T02:17:57;15.30;84.90
45233;DHT22;30969;51.052;17.056;2022-09-12T02:23:05;15.30;85.50
45233;DHT22;30969;51.052;17.056;2022-09-12T02:28:12;15.30;85.30
45233;DHT22;30969;51.052;17.056;2022-09-12T02:33:22;15.30;85.10
45233;DHT22;30969;51.052;17.056;2022-09-12T02:38:34;15.40;85.10
45233;DHT22;30969;51.052;17.056;2022-09-12T02:43:40;15.40;84.40
45233;DHT22;30969;51.052;17.056;2022-09-12T02:48:44;15.40;84.30
45233;DHT22;30969;51.052;17.056;2022-09-12T02:53:48;15.40;84.40
45233;DHT22;30969;51.052;17.056;2022-09-12T02:58:52;15.40;84.10
45233;DHT22;30969;51.052;17.056;2022-09-12T03:04:17;15.40;84.30
45233;DHT22;30969;51.052;17.056;2022-09-12T03:09:29;15.40;84.10
45233;DHT22;30969;51.052;17.056;2022-09-12T03:20:08;15.40;84.20
45233;DHT22;30969;51.052;17.056;2022-09-12T03:25:16;15.40;83.90
45233;DHT22;30969;51.052;17.056;2022-09-12T03:30:20;15.30;83.70
45233;DHT22;30969;51.052;17.056;2022-09-12T03:35:24;15.30;83.70
45233;DHT22;30969;51.052;17.056;2022-09-12T03:40:28;15.30;84.10
45233;DHT22;30969;51.052;17.056;2022-09-12T03:45:31;15.30;84.00
45233;DHT22;30969;51.052;17.056;2022-09-12T03:50:36;15.30;83.70
45233;DHT22;30969;51.052;17.056;2022-09-12T03:55:40;15.20;84.10
45233;DHT22;30969;51.052;17.056;2022-09-12T04:00:43;15.20;84.50
45233;DHT22;30969;51.052;17.056;2022-09-12T04:05:49;15.30;84.40
45233;DHT22;30969;51.052;17.056;2022-09-12T04:10:52;15.30;84.40
45233;DHT22;30969;51.052;17.056;2022-09-12T04:15:56;15.40;84.60
45233;DHT22;30969;51.052;17.056;2022-09-12T04:21:04;15.40;84.30
45233;DHT22;30969;51.052;17.056;2022-09-12T04:26:09;15.50;84.30
45233;DHT22;30969;51.052;17.056;2022-09-12T04:31:14;15.40;84.40
45233;DHT22;30969;51.052;17.056;2022-09-12T04:36:20;15.40;84.70
45233;DHT22;30969;51.052;17.056;2022-09-12T04:41:25;15.40;84.50
45233;DHT22;30969;51.052;17.056;2022-09-12T04:46:31;15.40;84.20
45233;DHT22;30969;51.052;17.056;2022-09-12T04:51:38;15.30;85.00
45233;DHT22;30969;51.052;17.056;2022-09-12T04:56:44;15.30;85.00
45233;DHT22;30969;51.052;17.056;2022-09-12T05:01:48;15.40;85.10
45233;DHT22;30969;51.052;17.056;2022-09-12T05:06:53;15.40;84.90
45233;DHT22;30969;51.052;17.056;2022-09-12T05:11:56;15.50;84.70
45233;DHT22;30969;51.052;17.056;2022-09-12T05:17:06;15.50;85.00
45233;DHT22;30969;51.052;17.056;2022-09-12T05:22:11;15.60;84.70
45233;DHT22;30969;51.052;17.056;2022-09-12T05:27:14;15.50;85.20
45233;DHT22;30969;51.052;17.056;2022-09-12T05:32:17;15.60;85.20
45233;DHT22;30969;51.052;17.056;2022-09-12T05:37:23;15.60;85.20
45233;DHT22;30969;51.052;17.056;2022-09-12T05:42:29;15.60;85.00
45233;DHT22;30969;51.052;17.056;2022-09-12T05:47:32;15.60;84.80
45233;DHT22;30969;51.052;17.056;2022-09-12T05:52:37;15.60;85.10
45233;DHT22;30969;51.052;17.056;2022-09-12T05:57:42;15.60;84.80
45233;DHT22;30969;51.052;17.056;2022-09-12T06:02:50;15.60;85.30
45233;DHT22;30969;51.052;17.056;2022-09-12T06:07:55;15.70;84.60
45233;DHT22;30969;51.052;17.056;2022-09-12T06:12:59;15.70;84.50
45233;DHT22;30969;51.052;17.056;2022-09-12T06:18:02;15.80;84.10
45233;DHT22;30969;51.052;17.056;2022-09-12T06:23:07;15.80;82.50
45233;DHT22;30969;51.052;17.056;2022-09-12T06:28:10;15.90;82.20
45233;DHT22;30969;51.052;17.056;2022-09-12T06:33:14;15.90;80.80
45233;DHT22;30969;51.052;17.056;2022-09-12T06:38:18;15.90;81.20
45233;DHT22;30969;51.052;17.056;2022-09-12T06:43:22;15.90;81.30
45233;DHT22;30969;51.052;17.056;2022-09-12T06:48:26;16.00;81.10
45233;DHT22;30969;51.052;17.056;2022-09-12T06:53:31;16.10;80.00
45233;DHT22;30969;51.052;17.056;2022-09-12T06:58:36;16.20;78.90
45233;DHT22;30969;51.052;17.056;2022-09-12T07:03:40;16.30;78.30
45233;DHT22;30969;51.052;17.056;2022-09-12T07:08:46;16.40;77.30
45233;DHT22;30969;51.052;17.056;2022-09-12T07:13:51;16.40;75.80
45233;DHT22;30969;51.052;17.056;2022-09-12T07:18:56;16.40;74.70
45233;DHT22;30969;51.052;17.056;2022-09-12T07:24:02;16.50;72.70
45233;DHT22;30969;51.052;17.056;2022-09-12T07:29:05;16.50;72.30
45233;DHT22;30969;51.052;17.056;2022-09-12T07:34:30;16.50;70.90
45233;DHT22;30969;51.052;17.056;2022-09-12T07:39:35;16.50;70.40
45233;DHT22;30969;51.052;17.056;2022-09-12T07:44:39;16.60;71.10
45233;DHT22;30969;51.052;17.056;2022-09-12T07:49:42;16.70;71.00
45233;DHT22;30969;51.052;17.056;2022-09-12T07:54:47;16.70;68.90
45233;DHT22;30969;51.052;17.056;2022-09-12T07:59:50;16.70;69.10
45233;DHT22;30969;51.052;17.056;2022-09-12T08:04:54;16.80;68.70
45233;DHT22;30969;51.052;17.056;2022-09-12T08:09:59;16.80;68.40
45233;DHT22;30969;51.052;17.056;2022-09-12T08:15:03;16.90;69.80
45233;DHT22;30969;51.052;17.056;2022-09-12T08:20:07;17.00;67.60
45233;DHT22;30969;51.052;17.056;2022-09-12T08:25:12;17.10;66.60
45233;DHT22;30969;51.052;17.056;2022-09-12T08:30:16;17.20;65.40
45233;DHT22;30969;51.052;17.056;2022-09-12T08:35:19;17.30;66.40
45233;DHT22;30969;51.052;17.056;2022-09-12T08:40:24;17.50;66.70
45233;DHT22;30969;51.052;17.056;2022-09-12T08:45:32;17.70;63.90
45233;DHT22;30969;51.052;17.056;2022-09-12T08:50:39;17.70;64.10
45233;DHT22;30969;51.052;17.056;2022-09-12T08:55:55;17.80;64.70
45233;DHT22;30969;51.052;17.056;2022-09-12T09:01:05;17.80;63.30
45233;DHT22;30969;51.052;17.056;2022-09-12T09:06:18;17.80;60.80
45233;DHT22;30969;51.052;17.056;2022-09-12T09:11:52;17.80;62.40
45233;DHT22;30969;51.052;17.056;2022-09-12T09:17:00;18.00;63.60
45233;DHT22;30969;51.052;17.056;2022-09-12T09:22:07;18.10;61.40
45233;DHT22;30969;51.052;17.056;2022-09-12T09:27:28;18.20;59.80
45233;DHT22;30969;51.052;17.056;2022-09-12T09:32:44;18.20;60.30
45233;DHT22;30969;51.052;17.056;2022-09-12T09:38:00;18.20;61.00
45233;DHT22;30969;51.052;17.056;2022-09-12T09:43:16;18.10;64.60
45233;DHT22;30969;51.052;17.056;2022-09-12T09:48:24;18.00;65.30
45233;DHT22;30969;51.052;17.056;2022-09-12T09:53:35;18.00;65.00
45233;DHT22;30969;51.052;17.056;2022-09-12T09:58:40;17.90;64.20
45233;DHT22;30969;51.052;17.056;2022-09-12T10:03:49;17.90;64.00
45233;DHT22;30969;51.052;17.056;2022-09-12T10:09:05;17.90;62.90
45233;DHT22;30969;51.052;17.056;2022-09-12T10:14:30;18.10;62.80
45233;DHT22;30969;51.052;17.056;2022-09-12T10:19:38;18.30;62.30
45233;DHT22;30969;51.052;17.056;2022-09-12T10:24:46;18.50;61.30
45233;DHT22;30969;51.052;17.056;2022-09-12T10:29:55;18.70;60.90
45233;DHT22;30969;51.052;17.056;2022-09-12T10:35:04;18.80;59.60
45233;DHT22;30969;51.052;17.056;2022-09-12T10:40:22;18.90;59.20
45233;DHT22;30969;51.052;17.056;2022-09-12T10:45:29;18.90;59.20
45233;DHT22;30969;51.052;17.056;2022-09-12T10:50:38;19.00;59.80
45233;DHT22;30969;51.052;17.056;2022-09-12T10:55:56;19.10;57.90
45233;DHT22;30969;51.052;17.056;2022-09-12T11:01:08;19.20;57.40
45233;DHT22;30969;51.052;17.056;2022-09-12T11:06:20;19.30;58.10
45233;DHT22;30969;51.052;17.056;2022-09-12T11:11:49;19.40;55.20
45233;DHT22;30969;51.052;17.056;2022-09-12T11:17:07;19.60;56.40
45233;DHT22;30969;51.052;17.056;2022-09-12T11:22:24;19.80;56.00
45233;DHT22;30969;51.052;17.056;2022-09-12T11:27:46;20.00;53.50
45233;DHT22;30969;51.052;17.056;2022-09-12T11:38:51;20.20;51.50
45233;DHT22;30969;51.052;17.056;2022-09-12T11:44:02;20.30;52.70
45233;DHT22;30969;51.052;17.056;2022-09-12T11:49:20;20.40;52.00
45233;DHT22;30969;51.052;17.056;2022-09-12T11:54:31;20.40;50.20
45233;DHT22;30969;51.052;17.056;2022-09-12T11:59:42;20.50;51.80
45233;DHT22;30969;51.052;17.056;2022-09-12T12:04:58;20.70;51.90
45233;DHT22;30969;51.052;17.056;2022-09-12T12:10:06;21.00;50.00
45233;DHT22;30969;51.052;17.056;2022-09-12T12:15:13;21.10;49.30
45233;DHT22;30969;51.052;17.056;2022-09-12T12:20:18;21.00;49.20
45233;DHT22;30969;51.052;17.056;2022-09-12T12:25:25;20.80;49.30
45233;DHT22;30969;51.052;17.056;2022-09-12T12:30:59;20.70;50.10
45233;DHT22;30969;51.052;17.056;2022-09-12T12:36:04;20.50;52.40
45233;DHT22;30969;51.052;17.056;2022-09-12T12:41:43;20.30;53.10
45233;DHT22;30969;51.052;17.056;2022-09-12T12:47:11;20.30;53.50
45233;DHT22;30969;51.052;17.056;2022-09-12T12:52:17;20.30;53.70
45233;DHT22;30969;51.052;17.056;2022-09-12T12:57:47;20.40;53.80
45233;DHT22;30969;51.052;17.056;2022-09-12T13:02:54;20.40;52.60
45233;DHT22;30969;51.052;17.056;2022-09-12T13:08:02;20.60;53.40
45233;DHT22;30969;51.052;17.056;2022-09-12T13:13:21;20.80;54.00
45233;DHT22;30969;51.052;17.056;2022-09-12T13:18:27;21.00;52.30
45233;DHT22;30969;51.052;17.056;2022-09-12T13:23:32;21.00;51.90
45233;DHT22;30969;51.052;17.056;2022-09-12T13:28:38;21.00;51.60
45233;DHT22;30969;51.052;17.056;2022-09-12T13:33:44;21.00;50.20
45233;DHT22;30969;51.052;17.056;2022-09-12T13:39:01;20.80;51.10
45233;DHT22;30969;51.052;17.056;2022-09-12T13:44:11;20.60;51.60
45233;DHT22;30969;51.052;17.056;2022-09-12T13:49:22;20.60;52.70
45233;DHT22;30969;51.052;17.056;2022-09-12T13:54:30;20.60;52.70
45233;DHT22;30969;51.052;17.056;2022-09-12T13:59:39;20.50;52.80
45233;DHT22;30969;51.052;17.056;2022-09-12T14:04:45;20.50;53.40
45233;DHT22;30969;51.052;17.056;2022-09-12T14:10:06;20.60;52.80
45233;DHT22;30969;51.052;17.056;2022-09-12T14:15:18;20.60;53.00
45233;DHT22;30969;51.052;17.056;2022-09-12T14:20:23;20.60;52.80
45233;DHT22;30969;51.052;17.056;2022-09-12T14:25:35;20.70;53.20
45233;DHT22;30969;51.052;17.056;2022-09-12T14:30:57;20.80;53.60
45233;DHT22;30969;51.052;17.056;2022-09-12T14:36:20;21.00;53.10
45233;DHT22;30969;51.052;17.056;2022-09-12T14:41:27;21.20;51.80
45233;DHT22;30969;51.052;17.056;2022-09-12T14:46:34;21.30;52.30
45233;DHT22;30969;51.052;17.056;2022-09-12T14:51:40;21.20;50.60
45233;DHT22;30969;51.052;17.056;2022-09-12T14:56:54;21.20;51.50
45233;DHT22;30969;51.052;17.056;2022-09-12T15:02:19;21.20;52.00
45233;DHT22;30969;51.052;17.056;2022-09-12T15:07:31;21.10;52.50
45233;DHT22;30969;51.052;17.056;2022-09-12T15:12:35;21.10;52.30
45233;DHT22;30969;51.052;17.056;2022-09-12T15:17:40;21.00;51.10
45233;DHT22;30969;51.052;17.056;2022-09-12T15:22:44;20.80;51.00
45233;DHT22;30969;51.052;17.056;2022-09-12T15:27:49;20.70;51.20
45233;DHT22;30969;51.052;17.056;2022-09-12T15:32:56;20.60;51.80
45233;DHT22;30969;51.052;17.056;2022-09-12T15:38:01;20.60;51.90
45233;DHT22;30969;51.052;17.056;2022-09-12T15:43:04;20.50;52.20
45233;DHT22;30969;51.052;17.056;2022-09-12T15:48:09;20.40;52.70
45233;DHT22;30969;51.052;17.056;2022-09-12T15:53:14;20.40;53.30
45233;DHT22;30969;51.052;17.056;2022-09-12T15:58:18;20.40;53.90
45233;DHT22;30969;51.052;17.056;2022-09-12T16:03:24;20.50;54.00
45233;DHT22;30969;51.052;17.056;2022-09-12T16:08:29;20.50;54.20
45233;DHT22;30969;51.052;17.056;2022-09-12T16:13:33;20.50;53.90
45233;DHT22;30969;51.052;17.056;2022-09-12T16:18:39;20.50;54.00
45233;DHT22;30969;51.052;17.056;2022-09-12T16:23:43;20.50;54.30
45233;DHT22;30969;51.052;17.056;2022-09-12T16:28:53;20.50;55.00
45233;DHT22;30969;51.052;17.056;2022-09-12T16:33:58;20.50;54.90
45233;DHT22;30969;51.052;17.056;2022-09-12T16:39:02;20.50;55.10
45233;DHT22;30969;51.052;17.056;2022-09-12T16:44:05;20.50;55.30
45233;DHT22;30969;51.052;17.056;2022-09-12T16:49:10;20.40;55.60
45233;DHT22;30969;51.052;17.056;2022-09-12T16:54:14;20.20;55.80
45233;DHT22;30969;51.052;17.056;2022-09-12T16:59:18;20.10;56.10
45233;DHT22;30969;51.052;17.056;2022-09-12T17:04:23;20.00;56.60
45233;DHT22;30969;51.052;17.056;2022-09-12T17:09:26;19.90;56.70
45233;DHT22;30969;51.052;17.056;2022-09-12T17:14:30;19.90;57.10
45233;DHT22;30969;51.052;17.056;2022-09-12T17:19:35;19.90;57.30
45233;DHT22;30969;51.052;17.056;2022-09-12T17:24:39;19.90;57.50
45233;DHT22;30969;51.052;17.056;2022-09-12T17:29:43;19.90;58.00
45233;DHT22;30969;51.052;17.056;2022-09-12T17:34:47;19.90;58.10
45233;DHT22;30969;51.052;17.056;2022-09-12T17:39:51;19.80;57.70
45233;DHT22;30969;51.052;17.056;2022-09-12T17:44:55;19.70;57.70
45233;DHT22;30969;51.052;17.056;2022-09-12T17:50:00;19.70;58.60
45233;DHT22;30969;51.052;17.056;2022-09-12T17:55:24;19.60;58.80
45233;DHT22;30969;51.052;17.056;2022-09-12T18:00:28;19.40;58.80
45233;DHT22;30969;51.052;17.056;2022-09-12T18:05:50;19.40;59.80
45233;DHT22;30969;51.052;17.056;2022-09-12T18:11:02;19.30;59.80
45233;DHT22;30969;51.052;17.056;2022-09-12T18:16:08;19.30;59.70
45233;DHT22;30969;51.052;17.056;2022-09-12T18:21:13;19.20;60.20
45233;DHT22;30969;51.052;17.056;2022-09-12T18:26:17;19.10;60.50
45233;DHT22;30969;51.052;17.056;2022-09-12T18:31:22;19.00;60.80
45233;DHT22;30969;51.052;17.056;2022-09-12T18:36:28;19.00;61.10
45233;DHT22;30969;51.052;17.056;2022-09-12T18:41:32;18.90;61.40
45233;DHT22;30969;51.052;17.056;2022-09-12T18:46:36;18.80;61.30
45233;DHT22;30969;51.052;17.056;2022-09-12T18:51:41;18.80;61.20
45233;DHT22;30969;51.052;17.056;2022-09-12T18:56:45;18.80;62.50
45233;DHT22;30969;51.052;17.056;2022-09-12T19:01:49;18.70;61.80
45233;DHT22;30969;51.052;17.056;2022-09-12T19:06:53;18.60;62.20
45233;DHT22;30969;51.052;17.056;2022-09-12T19:11:57;18.60;62.30
45233;DHT22;30969;51.052;17.056;2022-09-12T19:17:00;18.50;62.70
45233;DHT22;30969;51.052;17.056;2022-09-12T19:22:06;18.40;62.70
45233;DHT22;30969;51.052;17.056;2022-09-12T19:27:09;18.40;63.50
45233;DHT22;30969;51.052;17.056;2022-09-12T19:32:14;18.30;63.20
45233;DHT22;30969;51.052;17.056;2022-09-12T19:37:19;18.30;63.90
45233;DHT22;30969;51.052;17.056;2022-09-12T19:42:22;18.20;63.60
45233;DHT22;30969;51.052;17.056;2022-09-12T19:47:26;18.10;64.00
45233;DHT22;30969;51.052;17.056;2022-09-12T19:52:31;18.10;63.80
45233;DHT22;30969;51.052;17.056;2022-09-12T19:57:35;18.00;64.40
45233;DHT22;30969;51.052;17.056;2022-09-12T20:02:38;17.90;64.50
45233;DHT22;30969;51.052;17.056;2022-09-12T20:07:43;17.90;64.60
45233;DHT22;30969;51.052;17.056;2022-09-12T20:12:46;17.90;64.50
45233;DHT22;30969;51.052;17.056;2022-09-12T20:17:52;17.90;64.60
45233;DHT22;30969;51.052;17.056;2022-09-12T20:22:58;17.80;65.00
45233;DHT22;30969;51.052;17.056;2022-09-12T20:28:01;17.70;65.30
45233;DHT22;30969;51.052;17.056;2022-09-12T20:33:05;17.60;65.90
45233;DHT22;30969;51.052;17.056;2022-09-12T20:38:10;17.50;66.40
45233;DHT22;30969;51.052;17.056;2022-09-12T20:43:13;17.40;66.70
45233;DHT22;30969;51.052;17.056;2022-09-12T20:48:17;17.40;67.20
45233;DHT22;30969;51.052;17.056;2022-09-12T20:53:22;17.40;67.50
45233;DHT22;30969;51.052;17.056;2022-09-12T20:58:25;17.30;67.60
45233;DHT22;30969;51.052;17.056;2022-09-12T21:03:29;17.30;68.60
45233;DHT22;30969;51.052;17.056;2022-09-12T21:08:34;17.20;68.10
45233;DHT22;30969;51.052;17.056;2022-09-12T21:13:38;17.20;67.90
45233;DHT22;30969;51.052;17.056;2022-09-12T21:18:42;17.10;67.80
45233;DHT22;30969;51.052;17.056;2022-09-12T21:23:47;17.00;68.50
45233;DHT22;30969;51.052;17.056;2022-09-12T21:28:51;16.90;68.80
45233;DHT22;30969;51.052;17.056;2022-09-12T21:33:55;16.90;69.60
45233;DHT22;30969;51.052;17.056;2022-09-12T21:39:00;16.80;69.40
45233;DHT22;30969;51.052;17.056;2022-09-12T21:44:03;16.80;68.50
45233;DHT22;30969;51.052;17.056;2022-09-12T21:49:07;16.80;68.50
45233;DHT22;30969;51.052;17.056;2022-09-12T21:54:11;16.80;68.80
45233;DHT22;30969;51.052;17.056;2022-09-12T21:59:15;16.70;69.60
45233;DHT22;30969;51.052;17.056;2022-09-12T22:04:18;16.60;69.60
45233;DHT22;30969;51.052;17.056;2022-09-12T22:09:23;16.60;71.30
45233;DHT22;30969;51.052;17.056;2022-09-12T22:14:27;16.50;70.60
45233;DHT22;30969;51.052;17.056;2022-09-12T22:19:30;16.40;70.80
45233;DHT22;30969;51.052;17.056;2022-09-12T22:24:35;16.40;71.00
45233;DHT22;30969;51.052;17.056;2022-09-12T22:29:39;16.30;71.40
45233;DHT22;30969;51.052;17.056;2022-09-12T22:34:43;16.30;71.50
45233;DHT22;30969;51.052;17.056;2022-09-12T22:39:48;16.30;71.80
45233;DHT22;30969;51.052;17.056;2022-09-12T22:44:51;16.30;71.50
45233;DHT22;30969;51.052;17.056;2022-09-12T22:49:55;16.30;71.60
45233;DHT22;30969;51.052;17.056;2022-09-12T22:54:59;16.30;71.90
45233;DHT22;30969;51.052;17.056;2022-09-12T23:00:03;16.20;71.70
45233;DHT22;30969;51.052;17.056;2022-09-12T23:05:09;16.20;72.40
45233;DHT22;30969;51.052;17.056;2022-09-12T23:10:14;16.10;72.80
45233;DHT22;30969;51.052;17.056;2022-09-12T23:15:17;16.10;72.70
45233;DHT22;30969;51.052;17.056;2022-09-12T23:20:21;16.00;72.70
45233;DHT22;30969;51.052;17.056;2022-09-12T23:25:26;15.90;73.60
45233;DHT22;30969;51.052;17.056;2022-09-12T23:30:29;15.90;73.80
45233;DHT22;30969;51.052;17.056;2022-09-12T23:35:33;15.80;73.80
45233;DHT22;30969;51.052;17.056;2022-09-12T23:40:39;15.70;74.20
45233;DHT22;30969;51.052;17.056;2022-09-12T23:45:42;15.70;74.10
45233;DHT22;30969;51.052;17.056;2022-09-12T23:50:46;15.70;74.30
45233;DHT22;30969;51.052;17.056;2022-09-12T23:55:52;15.70;74.50
